BLOG

LUXURY FLIGHT

080-7560-1817

羽田空港本店: 所在地: 東京都大田区羽田空港3-3-2    セントレア店: 所在地: 愛知県常滑市セントレア1-1      HICityファイター店: 所在地: 東京都大田区羽田空港1-1-4         大阪国際空港店:所在地:大阪府豊中市蛍池西町3-555
           第1旅客ターミナル5階                  FLIGHT OF DREAMS FLIGHT PARK                HANEDA INNOVATION CITY ZONE-J 2-5               中央ブロック2F
      営業時間: 10:00~20:00 定休日: 年中無休         営業時間: 10:00~20:00 定休日: 年中無休             営業時間: 10:00~20:00 定休日: 年中無休        営業時間: 平日10:00~19:00 土日祝日 09:00-19:00 定休日: 年中無休
      電話番号: 080-7560-1817                 電話番号: 080-4945-5666                    電話番号: 03-5579-7980                 電話番号: 090-6607-0299

lv

BLOG

ph

BLOG

2021年11月14日正しいコーヒーサービスとは!

こんにちはーーーーーー!!   いつも弊社ブログを読んでくださり、 本当にありがとうございます!!   おかげさまで、皆様に大反響を頂き、   一時は社会現象まで狙っていた(私個人的に) スターフライヤー様とのコラボ企画が...

2021年11月8日ここ最近、ビタミンK (KISHIDA)が不足している皆様へ。

こんにちは!   LUXURY FLIGHTブログチーム、 チームリーダーの中澤です。 ちなみに、Facebook チームリーダー、 インスタ チームリーダー、 はたまた、ツイッターチームリーダーも 兼務しております。   リ...

2021年11月7日新商品のご案内(スターフライヤー)

こんにちはーーーす   大阪国際空港店のテンちょーーです 本日、スタフラさんから新しい商品が大阪店へ入荷しました     コーヒーなどのテイクアウトカップがそのまま入り、保温保冷できるステンレスサーモタンブラーです &n...

2021年11月6日改めて入荷しました!!大阪国際空港店

こんにちは 大阪国際空港店っす!!   現在の伊丹空港は・・・ RJOO 060300Z VRB03KT 9999 FEW035 BKN/// 18/05 Q1018 RMK 1CU035 A3008 です!!   曇り気味ではあ...

2021年10月24日例のサービス…… 好評です!!

こんにちはーーーーー!!!       いつも弊社ブログを読んでいただき、本当にありがとうございます!!           現在の羽田METARは… ...

2021年10月22日一度は夢見たあの光景が…!!

こんにちはーーー!!!!   いつもブログを読んでいただき本当にありがとうございます!!   早速でございますが、 前回のブログでチラッとご紹介させていただいた、 「面白い内容」を告知させて頂きたく!!!!    ...

2021年10月14日WE ♡スタフラさん

こんにちはーーーーーーーーーーーーー!!!!!!!             いつもお世話になっている、スターフライヤー様が、 2021年10月より、約1年振りにMother Comet...

2021年10月7日BOEINGグッズ大量に入荷しました〜ー(大阪国際空港店)

こんにちは〜   大阪のてんちょです!!   ここ最近、少なくなっておりましたBOEINGグッズ、大量に入荷しました〜〜     まだ、出しきれておりませんが・・・笑   今日帰れるかな・...

2021年10月4日早く起きた天気良い週末は…

  羽田空港本店より、こんばんはーーーー!!!   なかなかこの時間にブログを上げることも少ないので、新鮮な気持ちでございます。             ...

2021年11月1日改めて、747Dreamlifterのご紹介(セントレア店)

中部より、こんにちは!!!   現在中部は、 RJGG 010900Z 24003KT 9999 FEW030 BKN/// 20/14 Q1017 BECMG 30010KT と、日差しが強く、日中は暖かく感じました!   少し前のセントレア...

TOP